sensor_id;sensor_type;location;lat;lon;timestamp;P1;durP1;ratioP1;P2;durP2;ratioP2
29380;SDS011;16364;52.490;13.326;2023-07-22T00:01:03;5.63;;;4.90;;
29380;SDS011;16364;52.490;13.326;2023-07-22T00:03:29;4.90;;;4.50;;
29380;SDS011;16364;52.490;13.326;2023-07-22T00:08:28;5.97;;;5.50;;
29380;SDS011;16364;52.490;13.326;2023-07-22T00:10:53;5.53;;;5.03;;
29380;SDS011;16364;52.490;13.326;2023-07-22T00:13:18;5.57;;;5.17;;
29380;SDS011;16364;52.490;13.326;2023-07-22T00:15:44;5.87;;;5.47;;
29380;SDS011;16364;52.490;13.326;2023-07-22T00:18:09;5.43;;;5.00;;
29380;SDS011;16364;52.490;13.326;2023-07-22T00:20:35;5.60;;;5.10;;
29380;SDS011;16364;52.490;13.326;2023-07-22T00:23:01;5.50;;;5.03;;
29380;SDS011;16364;52.490;13.326;2023-07-22T00:25:26;6.03;;;5.50;;
29380;SDS011;16364;52.490;13.326;2023-07-22T00:27:51;5.67;;;5.27;;
29380;SDS011;16364;52.490;13.326;2023-07-22T00:30:16;5.40;;;4.83;;
29380;SDS011;16364;52.490;13.326;2023-07-22T00:32:42;5.33;;;5.03;;
29380;SDS011;16364;52.490;13.326;2023-07-22T00:35:08;6.50;;;5.87;;
29380;SDS011;16364;52.490;13.326;2023-07-22T00:37:34;5.40;;;5.00;;
29380;SDS011;16364;52.490;13.326;2023-07-22T00:40:01;6.70;;;5.30;;
29380;SDS011;16364;52.490;13.326;2023-07-22T00:42:27;4.97;;;4.57;;
29380;SDS011;16364;52.490;13.326;2023-07-22T00:44:52;5.47;;;5.07;;
29380;SDS011;16364;52.490;13.326;2023-07-22T00:47:17;5.60;;;5.20;;
29380;SDS011;16364;52.490;13.326;2023-07-22T00:49:42;5.07;;;4.67;;
29380;SDS011;16364;52.490;13.326;2023-07-22T00:52:08;5.90;;;5.50;;
29380;SDS011;16364;52.490;13.326;2023-07-22T00:54:33;6.20;;;5.70;;
29380;SDS011;16364;52.490;13.326;2023-07-22T00:56:58;5.80;;;5.40;;
29380;SDS011;16364;52.490;13.326;2023-07-22T00:59:24;6.43;;;5.93;;
29380;SDS011;16364;52.490;13.326;2023-07-22T01:01:49;5.80;;;5.30;;
29380;SDS011;16364;52.490;13.326;2023-07-22T01:04:15;6.40;;;5.80;;
29380;SDS011;16364;52.490;13.326;2023-07-22T01:06:42;7.27;;;6.33;;
29380;SDS011;16364;52.490;13.326;2023-07-22T01:09:07;6.50;;;5.90;;
29380;SDS011;16364;52.490;13.326;2023-07-22T01:11:34;8.03;;;6.97;;
29380;SDS011;16364;52.490;13.326;2023-07-22T01:13:59;6.10;;;5.70;;
29380;SDS011;16364;52.490;13.326;2023-07-22T01:16:26;7.30;;;6.80;;
29380;SDS011;16364;52.490;13.326;2023-07-22T01:18:52;6.93;;;6.30;;
29380;SDS011;16364;52.490;13.326;2023-07-22T01:21:17;6.27;;;5.77;;
29380;SDS011;16364;52.490;13.326;2023-07-22T01:23:43;7.73;;;7.13;;
29380;SDS011;16364;52.490;13.326;2023-07-22T01:26:08;7.67;;;6.77;;
29380;SDS011;16364;52.490;13.326;2023-07-22T01:28:37;7.90;;;6.87;;
29380;SDS011;16364;52.490;13.326;2023-07-22T01:31:02;7.97;;;7.20;;
29380;SDS011;16364;52.490;13.326;2023-07-22T01:33:27;7.83;;;7.23;;
29380;SDS011;16364;52.490;13.326;2023-07-22T01:35:52;8.23;;;7.23;;
29380;SDS011;16364;52.490;13.326;2023-07-22T01:38:18;7.03;;;6.20;;
29380;SDS011;16364;52.490;13.326;2023-07-22T01:40:44;7.50;;;6.80;;
29380;SDS011;16364;52.490;13.326;2023-07-22T01:43:09;6.87;;;6.37;;
29380;SDS011;16364;52.490;13.326;2023-07-22T01:45:34;8.37;;;7.77;;
29380;SDS011;16364;52.490;13.326;2023-07-22T01:48:00;8.47;;;7.77;;
29380;SDS011;16364;52.490;13.326;2023-07-22T01:50:25;7.50;;;6.90;;
29380;SDS011;16364;52.490;13.326;2023-07-22T01:52:50;6.70;;;6.20;;
29380;SDS011;16364;52.490;13.326;2023-07-22T01:55:16;7.90;;;7.20;;
29380;SDS011;16364;52.490;13.326;2023-07-22T01:57:41;8.23;;;7.40;;
29380;SDS011;16364;52.490;13.326;2023-07-22T02:00:07;9.33;;;8.37;;
29380;SDS011;16364;52.490;13.326;2023-07-22T02:02:35;8.50;;;7.60;;
29380;SDS011;16364;52.490;13.326;2023-07-22T02:05:01;8.70;;;7.50;;
29380;SDS011;16364;52.490;13.326;2023-07-22T02:07:26;7.67;;;6.97;;
29380;SDS011;16364;52.490;13.326;2023-07-22T02:09:51;7.27;;;6.67;;
29380;SDS011;16364;52.490;13.326;2023-07-22T02:12:17;7.13;;;6.60;;
29380;SDS011;16364;52.490;13.326;2023-07-22T02:14:42;6.77;;;6.27;;
29380;SDS011;16364;52.490;13.326;2023-07-22T02:17:08;7.33;;;5.90;;
29380;SDS011;16364;52.490;13.326;2023-07-22T02:19:34;7.07;;;6.33;;
29380;SDS011;16364;52.490;13.326;2023-07-22T02:21:59;6.53;;;6.03;;
29380;SDS011;16364;52.490;13.326;2023-07-22T02:24:24;8.23;;;6.13;;
29380;SDS011;16364;52.490;13.326;2023-07-22T02:26:50;6.00;;;5.40;;
29380;SDS011;16364;52.490;13.326;2023-07-22T02:29:15;6.93;;;6.43;;
29380;SDS011;16364;52.490;13.326;2023-07-22T02:31:40;6.97;;;6.47;;
29380;SDS011;16364;52.490;13.326;2023-07-22T02:34:05;8.07;;;5.53;;
29380;SDS011;16364;52.490;13.326;2023-07-22T02:36:30;5.97;;;5.53;;
29380;SDS011;16364;52.490;13.326;2023-07-22T02:38:56;6.60;;;6.20;;
29380;SDS011;16364;52.490;13.326;2023-07-22T02:41:21;5.63;;;5.20;;
29380;SDS011;16364;52.490;13.326;2023-07-22T02:43:46;5.77;;;5.30;;
29380;SDS011;16364;52.490;13.326;2023-07-22T02:46:12;7.57;;;6.30;;
29380;SDS011;16364;52.490;13.326;2023-07-22T02:48:37;5.80;;;5.40;;
29380;SDS011;16364;52.490;13.326;2023-07-22T02:53:30;6.73;;;6.00;;
29380;SDS011;16364;52.490;13.326;2023-07-22T02:55:55;6.20;;;5.70;;
29380;SDS011;16364;52.490;13.326;2023-07-22T02:58:20;7.70;;;7.00;;
29380;SDS011;16364;52.490;13.326;2023-07-22T03:00:46;6.57;;;5.87;;
29380;SDS011;16364;52.490;13.326;2023-07-22T03:03:11;5.67;;;5.17;;
29380;SDS011;16364;52.490;13.326;2023-07-22T03:05:37;6.50;;;5.73;;
29380;SDS011;16364;52.490;13.326;2023-07-22T03:08:02;7.57;;;6.93;;
29380;SDS011;16364;52.490;13.326;2023-07-22T03:10:27;7.60;;;6.17;;
29380;SDS011;16364;52.490;13.326;2023-07-22T03:12:54;6.70;;;6.20;;
29380;SDS011;16364;52.490;13.326;2023-07-22T03:15:21;7.70;;;7.00;;
29380;SDS011;16364;52.490;13.326;2023-07-22T03:17:46;7.70;;;7.00;;
29380;SDS011;16364;52.490;13.326;2023-07-22T03:20:11;7.73;;;7.03;;
29380;SDS011;16364;52.490;13.326;2023-07-22T03:22:41;7.97;;;7.37;;
29380;SDS011;16364;52.490;13.326;2023-07-22T03:25:07;6.53;;;6.10;;
29380;SDS011;16364;52.490;13.326;2023-07-22T03:27:34;7.57;;;6.60;;
29380;SDS011;16364;52.490;13.326;2023-07-22T03:29:59;7.43;;;6.83;;
29380;SDS011;16364;52.490;13.326;2023-07-22T03:32:25;7.70;;;6.33;;
29380;SDS011;16364;52.490;13.326;2023-07-22T03:34:50;7.27;;;6.77;;
29380;SDS011;16364;52.490;13.326;2023-07-22T03:37:15;10.33;;;7.00;;
29380;SDS011;16364;52.490;13.326;2023-07-22T03:39:40;7.33;;;6.30;;
29380;SDS011;16364;52.490;13.326;2023-07-22T03:42:06;7.20;;;6.60;;
29380;SDS011;16364;52.490;13.326;2023-07-22T03:44:31;7.70;;;6.67;;
29380;SDS011;16364;52.490;13.326;2023-07-22T03:46:56;7.00;;;6.40;;
29380;SDS011;16364;52.490;13.326;2023-07-22T03:49:21;6.67;;;6.10;;
29380;SDS011;16364;52.490;13.326;2023-07-22T03:51:47;6.10;;;5.70;;
29380;SDS011;16364;52.490;13.326;2023-07-22T03:54:12;6.33;;;5.90;;
29380;SDS011;16364;52.490;13.326;2023-07-22T03:56:39;6.40;;;5.90;;
29380;SDS011;16364;52.490;13.326;2023-07-22T03:59:05;7.37;;;6.17;;
29380;SDS011;16364;52.490;13.326;2023-07-22T04:01:30;5.50;;;5.20;;
29380;SDS011;16364;52.490;13.326;2023-07-22T04:03:56;6.30;;;5.80;;
29380;SDS011;16364;52.490;13.326;2023-07-22T04:06:21;6.83;;;5.60;;
29380;SDS011;16364;52.490;13.326;2023-07-22T04:08:46;5.23;;;4.83;;
29380;SDS011;16364;52.490;13.326;2023-07-22T04:11:11;4.93;;;4.53;;
29380;SDS011;16364;52.490;13.326;2023-07-22T04:13:39;5.00;;;4.60;;
29380;SDS011;16364;52.490;13.326;2023-07-22T04:16:04;9.80;;;5.37;;
29380;SDS011;16364;52.490;13.326;2023-07-22T04:18:29;5.80;;;4.57;;
29380;SDS011;16364;52.490;13.326;2023-07-22T04:20:59;4.93;;;4.43;;
29380;SDS011;16364;52.490;13.326;2023-07-22T04:23:25;5.40;;;4.90;;
29380;SDS011;16364;52.490;13.326;2023-07-22T04:25:51;5.80;;;5.30;;
29380;SDS011;16364;52.490;13.326;2023-07-22T04:28:16;8.50;;;4.47;;
29380;SDS011;16364;52.490;13.326;2023-07-22T04:30:41;4.90;;;4.60;;
29380;SDS011;16364;52.490;13.326;2023-07-22T04:33:06;7.10;;;4.83;;
29380;SDS011;16364;52.490;13.326;2023-07-22T04:35:36;4.50;;;4.10;;
29380;SDS011;16364;52.490;13.326;2023-07-22T04:38:02;4.90;;;4.30;;
29380;SDS011;16364;52.490;13.326;2023-07-22T04:40:28;4.03;;;3.73;;
29380;SDS011;16364;52.490;13.326;2023-07-22T04:42:53;7.73;;;4.70;;
29380;SDS011;16364;52.490;13.326;2023-07-22T04:45:18;5.00;;;4.50;;
29380;SDS011;16364;52.490;13.326;2023-07-22T04:47:44;4.13;;;3.73;;
29380;SDS011;16364;52.490;13.326;2023-07-22T04:50:12;5.03;;;4.63;;
29380;SDS011;16364;52.490;13.326;2023-07-22T04:52:37;7.97;;;4.70;;
29380;SDS011;16364;52.490;13.326;2023-07-22T04:55:02;5.23;;;4.73;;
29380;SDS011;16364;52.490;13.326;2023-07-22T04:57:34;5.10;;;4.67;;
29380;SDS011;16364;52.490;13.326;2023-07-22T04:59:59;4.93;;;4.53;;
29380;SDS011;16364;52.490;13.326;2023-07-22T05:02:24;8.63;;;4.50;;
29380;SDS011;16364;52.490;13.326;2023-07-22T05:04:49;4.83;;;4.43;;
29380;SDS011;16364;52.490;13.326;2023-07-22T05:07:15;5.10;;;4.60;;
29380;SDS011;16364;52.490;13.326;2023-07-22T05:09:40;5.50;;;5.00;;
29380;SDS011;16364;52.490;13.326;2023-07-22T05:12:05;5.23;;;4.73;;
29380;SDS011;16364;52.490;13.326;2023-07-22T05:14:30;7.20;;;5.67;;
29380;SDS011;16364;52.490;13.326;2023-07-22T05:16:56;5.90;;;5.40;;
29380;SDS011;16364;52.490;13.326;2023-07-22T05:19:21;6.00;;;5.40;;
29380;SDS011;16364;52.490;13.326;2023-07-22T05:21:46;5.27;;;4.80;;
29380;SDS011;16364;52.490;13.326;2023-07-22T05:24:11;7.63;;;6.10;;
29380;SDS011;16364;52.490;13.326;2023-07-22T05:26:37;6.57;;;5.97;;
29380;SDS011;16364;52.490;13.326;2023-07-22T05:29:02;7.33;;;6.73;;
29380;SDS011;16364;52.490;13.326;2023-07-22T05:31:28;7.90;;;6.80;;
29380;SDS011;16364;52.490;13.326;2023-07-22T05:33:53;7.57;;;5.77;;
29380;SDS011;16364;52.490;13.326;2023-07-22T05:36:18;8.27;;;6.60;;
29380;SDS011;16364;52.490;13.326;2023-07-22T05:38:43;7.97;;;6.20;;
29380;SDS011;16364;52.490;13.326;2023-07-22T05:41:09;8.27;;;6.97;;
29380;SDS011;16364;52.490;13.326;2023-07-22T05:43:34;9.37;;;6.70;;
29380;SDS011;16364;52.490;13.326;2023-07-22T05:45:59;6.67;;;6.03;;
29380;SDS011;16364;52.490;13.326;2023-07-22T05:48:24;7.30;;;6.60;;
29380;SDS011;16364;52.490;13.326;2023-07-22T05:50:50;8.57;;;7.43;;
29380;SDS011;16364;52.490;13.326;2023-07-22T05:53:15;10.57;;;7.73;;
29380;SDS011;16364;52.490;13.326;2023-07-22T05:55:40;7.33;;;6.47;;
29380;SDS011;16364;52.490;13.326;2023-07-22T05:58:05;8.43;;;6.77;;
29380;SDS011;16364;52.490;13.326;2023-07-22T06:00:34;7.80;;;6.90;;
29380;SDS011;16364;52.490;13.326;2023-07-22T06:02:59;7.60;;;6.90;;
29380;SDS011;16364;52.490;13.326;2023-07-22T06:05:24;11.93;;;6.60;;
29380;SDS011;16364;52.490;13.326;2023-07-22T06:07:50;6.87;;;6.23;;
29380;SDS011;16364;52.490;13.326;2023-07-22T06:10:15;13.20;;;7.00;;
29380;SDS011;16364;52.490;13.326;2023-07-22T06:12:40;10.77;;;7.53;;
29380;SDS011;16364;52.490;13.326;2023-07-22T06:15:06;9.57;;;6.77;;
29380;SDS011;16364;52.490;13.326;2023-07-22T06:17:31;6.53;;;5.60;;
29380;SDS011;16364;52.490;13.326;2023-07-22T06:19:57;9.80;;;5.83;;
29380;SDS011;16364;52.490;13.326;2023-07-22T06:22:22;8.63;;;7.03;;
29380;SDS011;16364;52.490;13.326;2023-07-22T06:24:47;9.87;;;6.00;;
29380;SDS011;16364;52.490;13.326;2023-07-22T06:27:12;7.73;;;6.40;;
29380;SDS011;16364;52.490;13.326;2023-07-22T06:29:38;7.00;;;6.07;;
29380;SDS011;16364;52.490;13.326;2023-07-22T06:32:03;6.30;;;5.70;;
29380;SDS011;16364;52.490;13.326;2023-07-22T06:34:28;5.40;;;4.90;;
29380;SDS011;16364;52.490;13.326;2023-07-22T06:36:54;7.60;;;6.07;;
29380;SDS011;16364;52.490;13.326;2023-07-22T06:39:19;8.93;;;5.27;;
29380;SDS011;16364;52.490;13.326;2023-07-22T06:41:44;10.00;;;6.40;;
29380;SDS011;16364;52.490;13.326;2023-07-22T06:44:09;7.50;;;6.80;;
29380;SDS011;16364;52.490;13.326;2023-07-22T06:46:34;6.60;;;5.20;;
29380;SDS011;16364;52.490;13.326;2023-07-22T06:49:00;5.20;;;4.60;;
29380;SDS011;16364;52.490;13.326;2023-07-22T06:51:25;5.40;;;4.47;;
29380;SDS011;16364;52.490;13.326;2023-07-22T06:53:50;5.30;;;4.60;;
29380;SDS011;16364;52.490;13.326;2023-07-22T06:56:15;4.93;;;3.77;;
29380;SDS011;16364;52.490;13.326;2023-07-22T06:58:40;5.63;;;3.87;;
29380;SDS011;16364;52.490;13.326;2023-07-22T07:01:06;4.77;;;4.03;;
29380;SDS011;16364;52.490;13.326;2023-07-22T07:03:31;7.90;;;3.33;;
29380;SDS011;16364;52.490;13.326;2023-07-22T07:05:56;5.07;;;3.50;;
29380;SDS011;16364;52.490;13.326;2023-07-22T07:08:22;5.00;;;3.00;;
29380;SDS011;16364;52.490;13.326;2023-07-22T07:10:48;5.23;;;3.10;;
29380;SDS011;16364;52.490;13.326;2023-07-22T07:13:13;6.37;;;3.30;;
29380;SDS011;16364;52.490;13.326;2023-07-22T07:15:39;3.70;;;3.10;;
29380;SDS011;16364;52.490;13.326;2023-07-22T07:18:04;4.03;;;2.60;;
29380;SDS011;16364;52.490;13.326;2023-07-22T07:20:30;3.90;;;3.47;;
29380;SDS011;16364;52.490;13.326;2023-07-22T07:22:55;7.60;;;3.87;;
29380;SDS011;16364;52.490;13.326;2023-07-22T07:25:20;6.60;;;3.30;;
29380;SDS011;16364;52.490;13.326;2023-07-22T07:27:46;3.73;;;3.40;;
29380;SDS011;16364;52.490;13.326;2023-07-22T07:30:11;9.23;;;3.47;;
29380;SDS011;16364;52.490;13.326;2023-07-22T07:32:36;5.80;;;3.87;;
29380;SDS011;16364;52.490;13.326;2023-07-22T07:35:02;3.87;;;3.40;;
29380;SDS011;16364;52.490;13.326;2023-07-22T07:37:29;4.30;;;3.20;;
29380;SDS011;16364;52.490;13.326;2023-07-22T07:39:54;4.77;;;3.20;;
29380;SDS011;16364;52.490;13.326;2023-07-22T07:42:24;5.20;;;3.40;;
29380;SDS011;16364;52.490;13.326;2023-07-22T07:44:49;3.23;;;2.90;;
29380;SDS011;16364;52.490;13.326;2023-07-22T07:47:14;4.90;;;4.40;;
29380;SDS011;16364;52.490;13.326;2023-07-22T07:49:40;3.67;;;3.37;;
29380;SDS011;16364;52.490;13.326;2023-07-22T07:52:05;5.60;;;3.80;;
29380;SDS011;16364;52.490;13.326;2023-07-22T07:54:30;4.50;;;3.53;;
29380;SDS011;16364;52.490;13.326;2023-07-22T07:56:56;4.73;;;3.30;;
29380;SDS011;16364;52.490;13.326;2023-07-22T07:59:21;10.00;;;3.73;;
29380;SDS011;16364;52.490;13.326;2023-07-22T08:01:46;6.53;;;3.30;;
29380;SDS011;16364;52.490;13.326;2023-07-22T08:04:12;4.47;;;4.00;;
29380;SDS011;16364;52.490;13.326;2023-07-22T08:06:38;7.40;;;3.10;;
29380;SDS011;16364;52.490;13.326;2023-07-22T08:09:03;3.80;;;3.20;;
29380;SDS011;16364;52.490;13.326;2023-07-22T08:11:30;3.30;;;2.73;;
29380;SDS011;16364;52.490;13.326;2023-07-22T08:13:55;4.87;;;3.27;;
29380;SDS011;16364;52.490;13.326;2023-07-22T08:16:20;5.57;;;3.83;;
29380;SDS011;16364;52.490;13.326;2023-07-22T08:18:45;4.27;;;3.87;;
29380;SDS011;16364;52.490;13.326;2023-07-22T08:21:12;4.43;;;2.70;;
29380;SDS011;16364;52.490;13.326;2023-07-22T08:23:37;6.07;;;3.43;;
29380;SDS011;16364;52.490;13.326;2023-07-22T08:26:02;3.97;;;3.27;;
29380;SDS011;16364;52.490;13.326;2023-07-22T08:28:30;4.47;;;3.80;;
29380;SDS011;16364;52.490;13.326;2023-07-22T08:30:55;4.73;;;3.17;;
29380;SDS011;16364;52.490;13.326;2023-07-22T08:33:21;5.10;;;4.07;;
29380;SDS011;16364;52.490;13.326;2023-07-22T08:35:47;5.70;;;3.67;;
29380;SDS011;16364;52.490;13.326;2023-07-22T08:38:13;5.23;;;3.07;;
29380;SDS011;16364;52.490;13.326;2023-07-22T08:40:39;6.23;;;3.10;;
29380;SDS011;16364;52.490;13.326;2023-07-22T08:43:06;3.73;;;3.40;;
29380;SDS011;16364;52.490;13.326;2023-07-22T08:45:32;3.77;;;3.00;;
29380;SDS011;16364;52.490;13.326;2023-07-22T08:47:59;5.10;;;3.27;;
29380;SDS011;16364;52.490;13.326;2023-07-22T08:50:26;3.40;;;3.10;;
29380;SDS011;16364;52.490;13.326;2023-07-22T08:52:54;6.33;;;2.93;;
29380;SDS011;16364;52.490;13.326;2023-07-22T08:55:19;6.47;;;4.00;;
29380;SDS011;16364;52.490;13.326;2023-07-22T08:57:45;3.77;;;2.63;;
29380;SDS011;16364;52.490;13.326;2023-07-22T09:00:11;5.57;;;3.00;;
29380;SDS011;16364;52.490;13.326;2023-07-22T09:02:37;7.07;;;3.67;;
29380;SDS011;16364;52.490;13.326;2023-07-22T09:05:02;4.73;;;3.20;;
29380;SDS011;16364;52.490;13.326;2023-07-22T09:07:28;6.80;;;3.33;;
29380;SDS011;16364;52.490;13.326;2023-07-22T09:09:53;3.43;;;3.10;;
29380;SDS011;16364;52.490;13.326;2023-07-22T09:12:20;3.23;;;2.93;;
29380;SDS011;16364;52.490;13.326;2023-07-22T09:14:46;4.30;;;3.60;;
29380;SDS011;16364;52.490;13.326;2023-07-22T09:17:11;4.03;;;3.27;;
29380;SDS011;16364;52.490;13.326;2023-07-22T09:19:37;5.03;;;3.53;;
29380;SDS011;16364;52.490;13.326;2023-07-22T09:22:02;5.50;;;3.50;;
29380;SDS011;16364;52.490;13.326;2023-07-22T09:24:27;4.63;;;2.73;;
29380;SDS011;16364;52.490;13.326;2023-07-22T09:26:53;3.70;;;3.20;;
29380;SDS011;16364;52.490;13.326;2023-07-22T09:29:18;6.67;;;3.17;;
29380;SDS011;16364;52.490;13.326;2023-07-22T09:31:57;4.93;;;2.77;;
29380;SDS011;16364;52.490;13.326;2023-07-22T09:34:22;2.70;;;2.37;;
29380;SDS011;16364;52.490;13.326;2023-07-22T09:36:54;3.17;;;2.43;;
29380;SDS011;16364;52.490;13.326;2023-07-22T09:39:21;5.80;;;2.27;;
29380;SDS011;16364;52.490;13.326;2023-07-22T09:41:46;3.87;;;2.67;;
29380;SDS011;16364;52.490;13.326;2023-07-22T09:44:12;2.30;;;2.10;;
29380;SDS011;16364;52.490;13.326;2023-07-22T09:46:37;2.90;;;2.60;;
29380;SDS011;16364;52.490;13.326;2023-07-22T09:49:03;3.80;;;2.87;;
29380;SDS011;16364;52.490;13.326;2023-07-22T09:51:32;6.70;;;2.30;;
29380;SDS011;16364;52.490;13.326;2023-07-22T09:54:02;4.00;;;2.40;;
29380;SDS011;16364;52.490;13.326;2023-07-22T09:56:27;2.63;;;2.43;;
29380;SDS011;16364;52.490;13.326;2023-07-22T09:58:52;5.70;;;2.67;;
29380;SDS011;16364;52.490;13.326;2023-07-22T10:01:22;2.30;;;2.00;;
29380;SDS011;16364;52.490;13.326;2023-07-22T10:03:49;3.70;;;2.37;;
29380;SDS011;16364;52.490;13.326;2023-07-22T10:06:15;3.90;;;2.50;;
29380;SDS011;16364;52.490;13.326;2023-07-22T10:08:41;2.97;;;2.37;;
29380;SDS011;16364;52.490;13.326;2023-07-22T10:11:09;9.00;;;2.13;;
29380;SDS011;16364;52.490;13.326;2023-07-22T10:13:36;2.20;;;2.00;;
29380;SDS011;16364;52.490;13.326;2023-07-22T10:16:02;3.07;;;2.73;;
29380;SDS011;16364;52.490;13.326;2023-07-22T10:18:27;2.63;;;2.30;;
29380;SDS011;16364;52.490;13.326;2023-07-22T10:20:54;5.07;;;2.80;;
29380;SDS011;16364;52.490;13.326;2023-07-22T10:23:19;2.67;;;2.40;;
29380;SDS011;16364;52.490;13.326;2023-07-22T10:25:45;5.20;;;3.17;;
29380;SDS011;16364;52.490;13.326;2023-07-22T10:28:11;3.33;;;2.40;;
29380;SDS011;16364;52.490;13.326;2023-07-22T10:30:37;4.13;;;2.30;;
29380;SDS011;16364;52.490;13.326;2023-07-22T10:33:02;2.53;;;2.33;;
29380;SDS011;16364;52.490;13.326;2023-07-22T10:40:44;2.50;;;2.30;;
29380;SDS011;16364;52.490;13.326;2023-07-22T10:43:09;3.60;;;3.30;;
29380;SDS011;16364;52.490;13.326;2023-07-22T10:45:51;3.43;;;2.57;;
29380;SDS011;16364;52.490;13.326;2023-07-22T10:48:19;2.97;;;2.67;;
29380;SDS011;16364;52.490;13.326;2023-07-22T10:50:45;3.73;;;2.67;;
29380;SDS011;16364;52.490;13.326;2023-07-22T10:53:19;3.20;;;2.37;;
29380;SDS011;16364;52.490;13.326;2023-07-22T10:58:33;4.13;;;2.63;;
29380;SDS011;16364;52.490;13.326;2023-07-22T11:06:33;3.47;;;2.40;;
29380;SDS011;16364;52.490;13.326;2023-07-22T11:08:58;8.47;;;3.23;;
29380;SDS011;16364;52.490;13.326;2023-07-22T11:11:44;3.50;;;2.83;;
29380;SDS011;16364;52.490;13.326;2023-07-22T11:14:13;4.83;;;2.73;;
29380;SDS011;16364;52.490;13.326;2023-07-22T11:16:40;7.13;;;3.20;;
29380;SDS011;16364;52.490;13.326;2023-07-22T11:19:05;7.47;;;3.10;;
29380;SDS011;16364;52.490;13.326;2023-07-22T11:21:30;4.43;;;3.07;;
29380;SDS011;16364;52.490;13.326;2023-07-22T11:23:55;4.90;;;3.40;;
29380;SDS011;16364;52.490;13.326;2023-07-22T11:26:21;3.47;;;3.27;;
29380;SDS011;16364;52.490;13.326;2023-07-22T11:28:46;4.60;;;3.43;;
29380;SDS011;16364;52.490;13.326;2023-07-22T11:31:11;4.23;;;3.20;;
29380;SDS011;16364;52.490;13.326;2023-07-22T11:33:37;4.77;;;3.37;;
29380;SDS011;16364;52.490;13.326;2023-07-22T11:36:03;3.40;;;2.70;;
29380;SDS011;16364;52.490;13.326;2023-07-22T11:38:29;3.67;;;2.40;;
29380;SDS011;16364;52.490;13.326;2023-07-22T11:40:54;3.00;;;2.70;;
29380;SDS011;16364;52.490;13.326;2023-07-22T11:43:20;3.57;;;2.90;;
29380;SDS011;16364;52.490;13.326;2023-07-22T11:45:45;4.10;;;3.00;;
29380;SDS011;16364;52.490;13.326;2023-07-22T11:48:11;4.07;;;3.67;;
29380;SDS011;16364;52.490;13.326;2023-07-22T11:50:37;3.50;;;3.10;;
29380;SDS011;16364;52.490;13.326;2023-07-22T11:53:02;4.30;;;3.60;;
29380;SDS011;16364;52.490;13.326;2023-07-22T11:55:28;5.40;;;2.93;;
29380;SDS011;16364;52.490;13.326;2023-07-22T11:57:53;3.57;;;2.73;;
29380;SDS011;16364;52.490;13.326;2023-07-22T12:00:18;3.80;;;3.13;;
29380;SDS011;16364;52.490;13.326;2023-07-22T12:02:44;3.53;;;2.73;;
29380;SDS011;16364;52.490;13.326;2023-07-22T12:05:09;3.77;;;3.47;;
29380;SDS011;16364;52.490;13.326;2023-07-22T12:07:38;2.53;;;2.33;;
29380;SDS011;16364;52.490;13.326;2023-07-22T12:10:04;4.43;;;2.87;;
29380;SDS011;16364;52.490;13.326;2023-07-22T12:12:37;3.57;;;3.27;;
29380;SDS011;16364;52.490;13.326;2023-07-22T12:15:12;3.40;;;3.10;;
29380;SDS011;16364;52.490;13.326;2023-07-22T12:20:11;5.63;;;3.40;;
29380;SDS011;16364;52.490;13.326;2023-07-22T12:22:37;2.93;;;2.63;;
29380;SDS011;16364;52.490;13.326;2023-07-22T12:25:02;3.90;;;3.23;;
29380;SDS011;16364;52.490;13.326;2023-07-22T12:27:28;6.50;;;3.60;;
29380;SDS011;16364;52.490;13.326;2023-07-22T12:29:54;2.93;;;2.73;;
29380;SDS011;16364;52.490;13.326;2023-07-22T12:32:19;5.33;;;3.47;;
29380;SDS011;16364;52.490;13.326;2023-07-22T12:34:44;6.00;;;3.40;;
29380;SDS011;16364;52.490;13.326;2023-07-22T12:37:09;3.73;;;3.40;;
29380;SDS011;16364;52.490;13.326;2023-07-22T12:39:34;3.53;;;3.23;;
29380;SDS011;16364;52.490;13.326;2023-07-22T12:42:00;4.20;;;3.80;;
29380;SDS011;16364;52.490;13.326;2023-07-22T12:44:26;3.43;;;3.13;;
29380;SDS011;16364;52.490;13.326;2023-07-22T12:46:51;5.60;;;3.30;;
29380;SDS011;16364;52.490;13.326;2023-07-22T12:49:18;3.63;;;3.20;;
29380;SDS011;16364;52.490;13.326;2023-07-22T12:51:43;4.60;;;3.37;;
29380;SDS011;16364;52.490;13.326;2023-07-22T12:54:08;4.17;;;3.87;;
29380;SDS011;16364;52.490;13.326;2023-07-22T12:56:34;3.83;;;2.70;;
29380;SDS011;16364;52.490;13.326;2023-07-22T12:58:59;4.57;;;4.17;;
29380;SDS011;16364;52.490;13.326;2023-07-22T13:01:24;3.63;;;3.33;;
29380;SDS011;16364;52.490;13.326;2023-07-22T13:03:49;4.23;;;3.07;;
29380;SDS011;16364;52.490;13.326;2023-07-22T13:06:15;3.83;;;3.10;;
29380;SDS011;16364;52.490;13.326;2023-07-22T13:08:40;3.37;;;3.07;;
29380;SDS011;16364;52.490;13.326;2023-07-22T13:11:05;4.23;;;3.70;;
29380;SDS011;16364;52.490;13.326;2023-07-22T13:13:30;3.53;;;3.20;;
29380;SDS011;16364;52.490;13.326;2023-07-22T13:15:55;4.20;;;2.90;;
29380;SDS011;16364;52.490;13.326;2023-07-22T13:18:21;3.87;;;3.30;;
29380;SDS011;16364;52.490;13.326;2023-07-22T13:20:46;3.17;;;2.97;;
29380;SDS011;16364;52.490;13.326;2023-07-22T13:23:11;5.83;;;3.53;;
29380;SDS011;16364;52.490;13.326;2023-07-22T13:25:36;3.23;;;2.93;;
29380;SDS011;16364;52.490;13.326;2023-07-22T13:28:02;3.40;;;3.20;;
29380;SDS011;16364;52.490;13.326;2023-07-22T13:30:27;6.20;;;3.33;;
29380;SDS011;16364;52.490;13.326;2023-07-22T13:32:52;4.97;;;3.53;;
29380;SDS011;16364;52.490;13.326;2023-07-22T13:35:18;3.27;;;2.97;;
29380;SDS011;16364;52.490;13.326;2023-07-22T13:37:43;2.90;;;2.70;;
29380;SDS011;16364;52.490;13.326;2023-07-22T13:40:09;3.03;;;2.70;;
29380;SDS011;16364;52.490;13.326;2023-07-22T13:42:35;3.27;;;2.97;;
29380;SDS011;16364;52.490;13.326;2023-07-22T13:45:00;2.97;;;2.77;;
29380;SDS011;16364;52.490;13.326;2023-07-22T13:47:27;3.63;;;3.20;;
29380;SDS011;16364;52.490;13.326;2023-07-22T13:49:52;5.07;;;3.50;;
29380;SDS011;16364;52.490;13.326;2023-07-22T13:52:17;3.17;;;2.87;;
29380;SDS011;16364;52.490;13.326;2023-07-22T13:54:43;3.00;;;2.70;;
29380;SDS011;16364;52.490;13.326;2023-07-22T13:57:08;4.87;;;3.60;;
29380;SDS011;16364;52.490;13.326;2023-07-22T13:59:34;3.80;;;3.50;;
29380;SDS011;16364;52.490;13.326;2023-07-22T14:01:59;4.07;;;3.67;;
29380;SDS011;16364;52.490;13.326;2023-07-22T14:04:24;3.43;;;3.23;;
29380;SDS011;16364;52.490;13.326;2023-07-22T14:06:49;3.47;;;3.17;;
29380;SDS011;16364;52.490;13.326;2023-07-22T14:09:15;3.23;;;3.03;;
29380;SDS011;16364;52.490;13.326;2023-07-22T14:11:40;3.80;;;3.27;;
29380;SDS011;16364;52.490;13.326;2023-07-22T14:14:05;3.53;;;3.23;;
29380;SDS011;16364;52.490;13.326;2023-07-22T14:16:30;3.00;;;2.80;;
29380;SDS011;16364;52.490;13.326;2023-07-22T14:18:56;4.87;;;4.47;;
29380;SDS011;16364;52.490;13.326;2023-07-22T14:21:22;2.90;;;2.70;;
29380;SDS011;16364;52.490;13.326;2023-07-22T14:23:47;3.97;;;3.10;;
29380;SDS011;16364;52.490;13.326;2023-07-22T14:26:12;3.20;;;3.00;;
29380;SDS011;16364;52.490;13.326;2023-07-22T14:28:37;4.67;;;3.43;;
29380;SDS011;16364;52.490;13.326;2023-07-22T14:31:03;4.07;;;3.17;;
29380;SDS011;16364;52.490;13.326;2023-07-22T14:33:29;3.30;;;3.10;;
29380;SDS011;16364;52.490;13.326;2023-07-22T14:35:54;3.20;;;2.90;;
29380;SDS011;16364;52.490;13.326;2023-07-22T14:38:19;4.00;;;3.20;;
29380;SDS011;16364;52.490;13.326;2023-07-22T14:40:45;3.83;;;3.53;;
29380;SDS011;16364;52.490;13.326;2023-07-22T14:43:10;4.27;;;3.53;;
29380;SDS011;16364;52.490;13.326;2023-07-22T14:45:35;3.40;;;3.10;;